Thunder radar more information blitzortung!


Radar de pluja more information rain snow radar


Visita la nostra xarxa de llocs de meteo:

Template documentation
and downloads

And another site



No particular awareness of the weather is required.    There are no Weather-warnings

Pagina Historial Weather Underground text

Diari Resum Juliol 25, 2017 Unitats:  Imperial    Mètric   Tant
« Previous Dia
SegĂźent Dia »
Diari Setmana Mensual Anual Personalitzada
  Maxima: Minima: Media:
Temperatura: TemperatureC °F 18.2 °F 25 °F
Punt de rosada: DewpointC °F 10.9 °F 14.4 °F
Humitat: Humidity % 35 % 53 %
Wind Speed: WindSpeedKMH mph 0.0 mph 8 mph
RĂ fegues de vent: WindSpeedGustKMH mph - -
Vent:- - SSW
Pression baro: PressurehPa in 1010.7 in -
Precipitacions: 0.0 in    
Historical Graphs
 
 
Dades de taula per Juliol 25, 2017
Temps Temperatura Punt de rosada Pression baro Vent Wind Speed RĂ fegues de vent Humitat Rainfall Rate (Hourly)
TemperatureC °F DewpointC °F PressurehPa in Calm     Humidity % HourlyPrecipMM in
00:03 22.5 °F 17.6 °F 1013.8 in NE 4.7 mph 4.7 mph 74 % 0.0 in
00:05 20.3 °F 12.0 °F 1013.8 in WSW 4.8 mph 4.8 mph 59 % 0.0 in
00:08 22.5 °F 17.8 °F 1014.8 in East 3.7 mph 3.7 mph 75 % 0.0 in
00:15 20.1 °F 11.8 °F 1013.8 in WSW 3.2 mph 4.8 mph 59 % 0.0 in
00:25 19.9 °F 11.9 °F 1013.8 in WNW 1.6 mph 6.4 mph 60 % 0.0 in
00:35 19.7 °F 11.7 °F 1013.8 in NNW 1.6 mph 3.2 mph 60 % 0.0 in
00:45 19.5 °F 11.5 °F 1013.8 in NNW 1.6 mph 1.6 mph 60 % 0.0 in
00:55 19.3 °F 11.3 °F 1013.8 in WSW 3.2 mph 4.8 mph 60 % 0.0 in
01:05 19.2 °F 11.2 °F 1013.8 in SW 1.6 mph 4.8 mph 60 % 0.0 in
01:15 19.0 °F 11.3 °F 1013.8 in SW 1.6 mph 3.2 mph 61 % 0.0 in
01:25 18.9 °F 11.4 °F 1013.8 in WSW 1.6 mph 3.2 mph 62 % 0.0 in
01:30 18.8 °F 11.4 °F 1013.8 in WSW 3.2 mph 3.2 mph 62 % 0.0 in
01:40 18.6 °F 11.4 °F 1012.8 in Calm   3.2 mph 63 % 0.0 in
01:50 18.5 °F 11.3 °F 1012.8 in WSW 1.6 mph 3.2 mph 63 % 0.0 in
02:00 18.4 °F 11.2 °F 1013.8 in Calm   1.6 mph 63 % 0.0 in
02:10 18.4 °F 11.4 °F 1013.8 in SW 1.6 mph 3.2 mph 64 % 0.0 in
02:20 18.2 °F 11.3 °F 1013.8 in SW 1.6 mph 1.6 mph 64 % 0.0 in
02:30 18.5 °F 11.6 °F 1013.8 in WSW 1.6 mph 3.2 mph 64 % 0.0 in
02:40 18.8 °F 11.8 °F 1013.8 in WSW 1.6 mph 3.2 mph 64 % 0.0 in
02:50 19.2 °F 12.0 °F 1013.8 in WSW 1.6 mph 3.2 mph 63 % 0.0 in
03:00 19.8 °F 12.3 °F 1013.8 in WSW 1.6 mph 4.8 mph 62 % 0.0 in
03:10 19.9 °F 12.2 °F 1013.8 in WSW 1.6 mph 3.2 mph 61 % 0.0 in
03:20 20.0 °F 12.0 °F 1013.8 in West 3.2 mph 4.8 mph 60 % 0.0 in
03:30 20.6 °F 12.3 °F 1013.8 in WNW 1.6 mph 4.8 mph 59 % 0.0 in
03:40 21.2 °F 12.9 °F 1013.8 in WNW 3.2 mph 3.2 mph 59 % 0.0 in
03:50 22.0 °F 13.1 °F 1013.8 in NW 1.6 mph 4.8 mph 57 % 0.0 in
04:00 21.4 °F 12.8 °F 1013.8 in Calm   4.8 mph 58 % 0.0 in
04:10 21.4 °F 12.5 °F 1013.8 in NNW 1.6 mph 3.2 mph 57 % 0.0 in
04:20 21.0 °F 12.4 °F 1013.8 in WSW 3.2 mph 4.8 mph 58 % 0.0 in
04:30 21.5 °F 12.6 °F 1013.8 in SW 1.6 mph 4.8 mph 57 % 0.0 in
04:40 22.5 °F 13.3 °F 1013.8 in SW 3.2 mph 3.2 mph 56 % 0.0 in
04:50 23.0 °F 13.4 °F 1013.8 in WSW 3.2 mph 4.8 mph 55 % 0.0 in
05:00 23.1 °F 13.3 °F 1013.8 in WSW 1.6 mph 6.4 mph 54 % 0.0 in
05:10 23.9 °F 13.7 °F 1013.8 in WSW 1.6 mph 6.4 mph 53 % 0.0 in
05:20 24.8 °F 14.3 °F 1013.8 in SSW 1.6 mph 6.4 mph 52 % 0.0 in
05:30 24.8 °F 14.0 °F 1013.8 in SW 3.2 mph 6.4 mph 51 % 0.0 in
05:40 24.9 °F 13.8 °F 1013.8 in SW 3.2 mph 8.0 mph 50 % 0.0 in
10:45 24.8 °F 13.7 °F 1013.8 in West 3.7 mph 3.7 mph 50 % 0.0 in
10:50 24.6 °F 13.2 °F 1013.8 in WNW 5.6 mph 5.6 mph 49 % 0.0 in
10:51 24.8 °F 13.7 °F 1013.8 in SW 5.6 mph 5.6 mph 50 % 0.0 in
10:56 25.4 °F 13.6 °F 1013.8 in SW 5.6 mph 5.6 mph 48 % 0.0 in
11:01 25.0 °F 13.6 °F 1013.8 in WNW 5.6 mph 5.6 mph 49 % 0.0 in
11:06 24.7 °F 13.3 °F 1013.8 in West 3.7 mph 3.7 mph 49 % 0.0 in
11:11 24.7 °F 13.3 °F 1013.8 in WSW 7.4 mph 7.4 mph 49 % 0.0 in
11:16 24.9 °F 13.1 °F 1013.8 in SW 3.7 mph 3.7 mph 48 % 0.0 in
11:21 25.5 °F 13.3 °F 1013.8 in South 5.3 mph 5.3 mph 47 % 0.0 in
11:26 26.0 °F 13.8 °F 1013.8 in SW 7.4 mph 7.4 mph 47 % 0.0 in
11:31 26.3 °F 14.1 °F 1013.8 in West 3.7 mph 3.7 mph 47 % 0.0 in
11:36 26.8 °F 14.6 °F 1013.8 in West 10.0 mph 10.0 mph 47 % 0.0 in
11:41 27.0 °F 14.1 °F 1013.8 in WNW 9.3 mph 9.3 mph 45 % 0.0 in
11:46 27.1 °F 13.8 °F 1013.8 in WSW 7.4 mph 7.4 mph 44 % 0.0 in
11:51 27.3 °F 13.6 °F 1013.8 in WNW 9.3 mph 9.3 mph 43 % 0.0 in
11:56 27.4 °F 13.3 °F 1013.8 in WNW 9.3 mph 9.3 mph 42 % 0.0 in
12:01 27.5 °F 13.4 °F 1013.8 in SSE 9.3 mph 9.3 mph 42 % 0.0 in
12:06 28.2 °F 14.1 °F 1012.8 in WSW 6.9 mph 6.9 mph 42 % 0.0 in
12:11 28.4 °F 13.9 °F 1012.8 in West 9.3 mph 9.3 mph 41 % 0.0 in
12:16 28.5 °F 13.9 °F 1012.8 in North 5.6 mph 6.1 mph 41 % 0.0 in
12:21 28.8 °F 13.4 °F 1012.8 in SW 7.9 mph 7.9 mph 39 % 0.0 in
12:26 28.8 °F 13.8 °F 1012.8 in WSW 7.4 mph 7.4 mph 40 % 0.0 in
12:31 28.4 °F 13.1 °F 1012.8 in SW 9.3 mph 9.3 mph 39 % 0.0 in
12:36 28.7 °F 13.4 °F 1012.8 in WSW 9.5 mph 9.5 mph 39 % 0.0 in
12:41 28.9 °F 12.7 °F 1012.8 in SE 3.7 mph 3.7 mph 37 % 0.0 in
12:46 28.9 °F 13.2 °F 1012.8 in SSW 7.4 mph 7.4 mph 38 % 0.0 in
12:51 29.0 °F 12.4 °F 1011.7 in SW 13.0 mph 13.0 mph 36 % 0.0 in
12:56 29.7 °F 13.4 °F 1011.7 in WSW 7.4 mph 7.4 mph 37 % 0.0 in
13:01 29.7 °F 13.4 °F 1011.7 in SW 9.0 mph 9.0 mph 37 % 0.0 in
13:06 29.8 °F 13.1 °F 1011.7 in SSW 7.9 mph 7.9 mph 36 % 0.0 in
13:11 30.4 °F 13.7 °F 1011.7 in SSE 6.1 mph 6.1 mph 36 % 0.0 in
13:16 30.4 °F 13.7 °F 1011.7 in SSW 5.6 mph 5.6 mph 36 % 0.0 in
13:21 30.0 °F 13.3 °F 1011.7 in South 9.3 mph 9.3 mph 36 % 0.0 in
13:26 30.0 °F 12.9 °F 1011.7 in SSE 9.3 mph 9.3 mph 35 % 0.0 in
13:31 29.9 °F 13.2 °F 1011.7 in South 3.7 mph 3.7 mph 36 % 0.0 in
13:36 30.0 °F 13.3 °F 1011.7 in WSW 11.1 mph 11.1 mph 36 % 0.0 in
13:41 29.8 °F 13.1 °F 1011.7 in East 6.1 mph 6.1 mph 36 % 0.0 in
13:46 30.3 °F 13.6 °F 1011.7 in SW 10.0 mph 10.0 mph 36 % 0.0 in
13:51 30.3 °F 13.1 °F 1011.7 in South 5.0 mph 5.0 mph 35 % 0.0 in
13:57 29.9 °F 13.6 °F 1011.7 in SSW 14.8 mph 14.8 mph 37 % 0.0 in
13:58 30.1 °F 13.8 °F 1011.7 in WSW 7.4 mph 7.4 mph 37 % 0.0 in
14:03 30.5 °F 14.6 °F 1011.7 in SW 9.3 mph 9.3 mph 38 % 0.0 in
14:08 30.2 °F 14.3 °F 1010.7 in SW 7.4 mph 7.4 mph 38 % 0.0 in
14:13 30.7 °F 14.8 °F 1010.7 in SW 13.0 mph 13.0 mph 38 % 0.0 in
14:18 30.1 °F 13.8 °F 1010.7 in WSW 16.7 mph 16.7 mph 37 % 0.0 in
14:23 30.2 °F 13.9 °F 1011.7 in SW 13.0 mph 13.0 mph 37 % 0.0 in
14:28 30.0 °F 13.7 °F 1011.7 in WSW 13.0 mph 13.0 mph 37 % 0.0 in
14:33 29.6 °F 13.8 °F 1011.7 in WSW 18.5 mph 18.5 mph 38 % 0.0 in
14:38 29.6 °F 14.2 °F 1011.7 in SW 12.6 mph 12.6 mph 39 % 0.0 in
14:43 29.7 °F 14.3 °F 1011.7 in SW 16.1 mph 16.1 mph 39 % 0.0 in
14:48 29.6 °F 14.2 °F 1011.7 in SE 16.7 mph 16.7 mph 39 % 0.0 in
14:53 29.3 °F 13.9 °F 1011.7 in WSW 18.0 mph 18.0 mph 39 % 0.0 in
14:58 29.3 °F 13.9 °F 1011.7 in WSW 20.6 mph 20.6 mph 39 % 0.0 in
15:03 28.9 °F 13.9 °F 1011.7 in SW 9.3 mph 9.3 mph 40 % 0.0 in
15:08 29.0 °F 14.1 °F 1011.7 in SSW 24.1 mph 24.1 mph 40 % 0.0 in
15:13 29.2 °F 14.2 °F 1011.7 in WNW 17.2 mph 17.2 mph 40 % 0.0 in
15:18 28.8 °F 14.2 °F 1011.7 in South 18.5 mph 18.5 mph 41 % 0.0 in
15:23 28.8 °F 14.2 °F 1011.7 in SW 20.4 mph 20.4 mph 41 % 0.0 in
15:28 28.8 °F 14.6 °F 1011.7 in South 13.0 mph 13.0 mph 42 % 0.0 in
15:33 29.0 °F 14.4 °F 1011.7 in WSW 13.0 mph 13.0 mph 41 % 0.0 in
15:38 28.8 °F 14.6 °F 1011.7 in SW 24.5 mph 24.5 mph 42 % 0.0 in
15:43 28.3 °F 14.5 °F 1011.7 in SSW 20.4 mph 20.4 mph 43 % 0.0 in
15:48 28.7 °F 14.9 °F 1011.7 in SSW 9.3 mph 9.7 mph 43 % 0.0 in
15:53 28.7 °F 14.9 °F 1011.7 in SW 22.2 mph 22.2 mph 43 % 0.0 in
15:58 28.6 °F 15.2 °F 1011.7 in WSW 11.1 mph 11.1 mph 44 % 0.0 in
16:03 28.8 °F 15.0 °F 1011.7 in South 9.3 mph 10.0 mph 43 % 0.0 in
16:08 28.4 °F 14.6 °F 1011.7 in WNW 20.4 mph 20.4 mph 43 % 0.0 in
16:13 28.2 °F 14.8 °F 1011.7 in South 24.1 mph 24.1 mph 44 % 0.0 in
16:18 28.3 °F 14.9 °F 1011.7 in SSE 18.5 mph 18.5 mph 44 % 0.0 in
16:23 28.4 °F 14.9 °F 1010.7 in WNW 14.8 mph 14.8 mph 44 % 0.0 in
16:28 29.0 °F 15.2 °F 1010.7 in SSW 14.8 mph 14.8 mph 43 % 0.0 in
16:29 29.1 °F 15.2 °F 1010.7 in WSW 19.5 mph 19.5 mph 43 % 0.0 in
16:34 28.7 °F 15.2 °F 1011.7 in SW 17.5 mph 17.5 mph 44 % 0.0 in
16:39 28.5 °F 15.1 °F 1011.7 in WSW 20.4 mph 20.4 mph 44 % 0.0 in
16:44 28.4 °F 14.9 °F 1011.7 in South 14.8 mph 14.8 mph 44 % 0.0 in
16:49 28.8 °F 15.7 °F 1011.7 in WSW 7.4 mph 7.4 mph 45 % 0.0 in
16:54 28.8 °F 15.3 °F 1011.7 in WSW 13.7 mph 13.7 mph 44 % 0.0 in
16:59 28.9 °F 15.8 °F 1011.7 in SW 7.4 mph 7.4 mph 45 % 0.0 in
17:04 28.9 °F 15.4 °F 1011.7 in SSW 11.1 mph 11.9 mph 44 % 0.0 in
17:09 28.4 °F 14.9 °F 1011.7 in SW 14.8 mph 14.8 mph 44 % 0.0 in
17:14 28.5 °F 15.1 °F 1011.7 in WSW 20.4 mph 20.4 mph 44 % 0.0 in
17:19 28.4 °F 15.3 °F 1011.7 in SSW 13.0 mph 13.0 mph 45 % 0.0 in
17:24 28.3 °F 15.2 °F 1011.7 in WSW 11.1 mph 11.1 mph 45 % 0.0 in
17:25 28.3 °F 15.2 °F 1011.7 in WSW 11.1 mph 11.1 mph 45 % 0.0 in
17:30 28.3 °F 15.2 °F 1011.7 in South 13.0 mph 13.0 mph 45 % 0.0 in
17:35 28.4 °F 15.3 °F 1011.7 in SSW 16.7 mph 16.7 mph 45 % 0.0 in
17:40 28.5 °F 15.4 °F 1011.7 in SW 13.0 mph 13.0 mph 45 % 0.0 in
17:45 28.2 °F 15.2 °F 1011.7 in SE 13.0 mph 13.0 mph 45 % 0.0 in
17:50 28.1 °F 15.1 °F 1011.7 in SW 14.8 mph 14.8 mph 45 % 0.0 in
17:55 28.0 °F 14.9 °F 1011.7 in South 7.4 mph 7.4 mph 45 % 0.0 in
18:00 27.4 °F 14.8 °F 1011.7 in West 20.4 mph 20.4 mph 46 % 0.0 in
18:05 27.1 °F 14.5 °F 1011.7 in WSW 20.4 mph 20.4 mph 46 % 0.0 in
18:10 27.2 °F 14.6 °F 1011.7 in South 15.8 mph 15.8 mph 46 % 0.0 in
18:15 27.3 °F 15.0 °F 1011.7 in WSW 14.8 mph 14.8 mph 47 % 0.0 in
18:20 27.1 °F 14.8 °F 1010.7 in SSE 14.8 mph 14.8 mph 47 % 0.0 in
18:25 27.1 °F 14.8 °F 1010.7 in SW 15.6 mph 15.6 mph 47 % 0.0 in
18:30 27.1 °F 14.8 °F 1010.7 in South 17.5 mph 17.5 mph 47 % 0.0 in
18:35 27.0 °F 15.1 °F 1010.7 in WSW 13.0 mph 13.0 mph 48 % 0.0 in
18:40 27.0 °F 15.1 °F 1010.7 in SSW 22.2 mph 22.2 mph 48 % 0.0 in
18:45 27.1 °F 15.2 °F 1010.7 in South 13.0 mph 13.0 mph 48 % 0.0 in
18:50 27.0 °F 15.1 °F 1011.7 in WSW 13.0 mph 13.0 mph 48 % 0.0 in
18:55 26.8 °F 15.5 °F 1011.7 in WSW 14.8 mph 14.8 mph 50 % 0.0 in
18:56 26.8 °F 15.5 °F 1011.7 in South 14.8 mph 14.8 mph 50 % 0.0 in
19:01 27.0 °F 15.4 °F 1011.7 in South 9.3 mph 9.3 mph 49 % 0.0 in
19:06 26.8 °F 15.5 °F 1010.7 in SW 11.9 mph 11.9 mph 50 % 0.0 in
19:11 26.7 °F 15.4 °F 1010.7 in SSW 11.1 mph 11.1 mph 50 % 0.0 in
19:16 26.8 °F 15.8 °F 1010.7 in SW 13.0 mph 13.0 mph 51 % 0.0 in
19:17 26.7 °F 15.7 °F 1010.7 in South 11.1 mph 11.1 mph 51 % 0.0 in
19:22 26.5 °F 15.6 °F 1010.7 in SSW 9.3 mph 9.3 mph 51 % 0.0 in
19:27 26.5 °F 15.6 °F 1010.7 in ENE 9.5 mph 9.5 mph 51 % 0.0 in
19:32 26.3 °F 15.7 °F 1010.7 in South 13.0 mph 13.0 mph 52 % 0.0 in
19:37 26.2 °F 15.6 °F 1010.7 in SSW 11.1 mph 11.1 mph 52 % 0.0 in
19:42 26.2 °F 15.6 °F 1010.7 in SW 9.3 mph 9.3 mph 52 % 0.0 in
19:47 25.9 °F 15.3 °F 1010.7 in SW 11.1 mph 11.1 mph 52 % 0.0 in
19:52 25.7 °F 15.1 °F 1010.7 in SW 7.4 mph 7.4 mph 52 % 0.0 in
19:57 25.4 °F 15.1 °F 1010.7 in SSW 11.1 mph 11.1 mph 53 % 0.0 in
20:02 25.2 °F 14.9 °F 1010.7 in South 11.1 mph 11.1 mph 53 % 0.0 in
20:07 25.2 °F 15.2 °F 1010.7 in SSE 5.6 mph 5.6 mph 54 % 0.0 in
20:12 25.2 °F 15.2 °F 1010.7 in SW 5.6 mph 5.6 mph 54 % 0.0 in
20:15 21.5 °F 16.4 °F 1011.7 in NE 3.2 mph 3.2 mph 73 % 0.0 in
20:17 25.0 °F 15.1 °F 1010.7 in SW 9.3 mph 9.3 mph 54 % 0.0 in
20:22 24.8 °F 15.4 °F 1011.7 in South 5.6 mph 5.6 mph 56 % 0.0 in
20:24 24.8 °F 15.4 °F 1011.7 in SW 7.4 mph 7.4 mph 56 % 0.0 in
20:25 21.4 °F 16.3 °F 1011.7 in NE 3.2 mph 3.2 mph 73 % 0.0 in
20:29 24.6 °F 15.2 °F 1011.7 in SW 5.6 mph 5.6 mph 56 % 0.0 in
20:34 24.7 °F 15.3 °F 1011.7 in SE 3.7 mph 3.9 mph 56 % 0.0 in
20:35 21.3 °F 16.5 °F 1011.7 in NE 1.6 mph 3.2 mph 74 % 0.0 in
20:39 24.6 °F 15.8 °F 1011.7 in ESE 11.1 mph 11.1 mph 58 % 0.0 in
20:44 24.3 °F 15.5 °F 1011.7 in South 9.3 mph 9.3 mph 58 % 0.0 in
20:45 21.3 °F 16.5 °F 1011.7 in ENE 1.6 mph 4.8 mph 74 % 0.0 in
20:49 24.2 °F 15.7 °F 1011.7 in SSW 5.6 mph 5.6 mph 59 % 0.0 in
20:54 24.0 °F 15.5 °F 1011.7 in SE 13.0 mph 13.0 mph 59 % 0.0 in
20:55 21.3 °F 16.5 °F 1011.7 in ENE 1.6 mph 4.8 mph 74 % 0.0 in
20:59 24.0 °F 15.8 °F 1011.7 in SSE 7.4 mph 7.4 mph 60 % 0.0 in
21:04 23.9 °F 15.9 °F 1011.7 in South 5.6 mph 5.6 mph 61 % 0.0 in
21:05 21.2 °F 16.6 °F 1011.7 in ENE 1.6 mph 4.8 mph 75 % 0.0 in
21:09 23.8 °F 16.1 °F 1011.7 in East 10.3 mph 10.3 mph 62 % 0.0 in
21:14 23.6 °F 16.2 °F 1011.7 in ESE 9.3 mph 9.3 mph 63 % 0.0 in
21:15 21.2 °F 16.6 °F 1011.7 in East 1.6 mph 3.2 mph 75 % 0.0 in
21:19 23.5 °F 16.3 °F 1012.8 in South 7.4 mph 7.4 mph 64 % 0.0 in
21:24 23.4 °F 16.2 °F 1012.8 in ESE 9.3 mph 9.3 mph 64 % 0.0 in
21:25 21.2 °F 16.6 °F 1011.7 in Calm   3.2 mph 75 % 0.0 in
21:29 23.3 °F 16.1 °F 1012.8 in ESE 11.1 mph 11.1 mph 64 % 0.0 in
21:34 23.3 °F 16.3 °F 1010.7 in SE 9.3 mph 9.3 mph 65 % 0.0 in
21:35 21.1 °F 16.3 °F 1011.7 in ESE 1.6 mph   74 % 0.0 in
21:39 23.2 °F 16.3 °F 1010.7 in SSE 7.4 mph 7.4 mph 65 % 0.0 in
21:44 23.2 °F 16.3 °F 1010.7 in SE 3.2 mph 3.2 mph 65 % 0.0 in
21:45 21.1 °F 16.3 °F 1011.7 in Calm     74 % 0.0 in
21:49 23.2 °F 16.5 °F 1011.7 in SSE 4.2 mph 4.2 mph 66 % 0.0 in
21:54 23.2 °F 16.3 °F 1011.7 in SE 3.9 mph 3.9 mph 65 % 0.0 in
21:55 21.1 °F 16.3 °F 1011.7 in SW 1.6 mph 3.2 mph 74 % 0.0 in
21:59 23.1 °F 16.4 °F 1011.7 in ESE 7.6 mph 7.6 mph 66 % 0.0 in
22:04 23.0 °F 16.3 °F 1011.7 in SSE 5.6 mph 5.6 mph 66 % 0.0 in
22:05 21.1 °F 16.5 °F 1011.7 in SW 3.2 mph 3.2 mph 75 % 0.0 in
22:09 23.0 °F 16.3 °F 1011.7 in ESE 5.6 mph 5.6 mph 66 % 0.0 in
22:14 22.9 °F 16.4 °F 1011.7 in ENE 5.6 mph 5.6 mph 67 % 0.0 in
22:15 21.0 °F 15.3 °F 1011.7 in WSW 3.2 mph 6.4 mph 70 % 0.0 in
22:19 22.8 °F 16.6 °F 1011.7 in East 5.6 mph 5.6 mph 68 % 0.0 in
22:24 22.7 °F 16.5 °F 1011.7 in ENE 3.7 mph 3.7 mph 68 % 0.0 in
22:25 21.0 °F 13.9 °F 1010.7 in WSW 4.8 mph 6.4 mph 64 % 0.0 in
22:29 22.8 °F 16.6 °F 1011.7 in ESE 5.6 mph 5.6 mph 68 % 0.0 in
22:34 22.8 °F 16.3 °F 1011.7 in ESE 3.2 mph 3.2 mph 67 % 0.0 in
22:35 20.9 °F 13.1 °F 1011.7 in WSW 3.2 mph 8.0 mph 61 % 0.0 in
22:39 22.8 °F 16.3 °F 1011.7 in East 4.7 mph 4.7 mph 67 % 0.0 in
22:44 22.8 °F 16.6 °F 1011.7 in NE 5.6 mph 5.6 mph 68 % 0.0 in
22:45 20.8 °F 12.5 °F 1011.7 in WSW 3.2 mph 4.8 mph 59 % 0.0 in
22:49 22.7 °F 16.5 °F 1011.7 in East 1.9 mph 1.9 mph 68 % 0.0 in
22:54 22.8 °F 16.6 °F 1011.7 in ENE 5.6 mph 5.6 mph 68 % 0.0 in
22:55 20.8 °F 12.5 °F 1011.7 in West 3.2 mph 4.8 mph 59 % 0.0 in
22:59 22.7 °F 16.5 °F 1011.7 in ENE 3.9 mph 3.9 mph 68 % 0.0 in
23:04 22.7 °F 16.5 °F 1011.7 in ENE 5.3 mph 5.3 mph 68 % 0.0 in
23:05 20.7 °F 11.9 °F 1010.7 in WNW 1.6 mph 4.8 mph 57 % 0.0 in
23:09 22.6 °F 16.6 °F 1011.7 in NNE 5.6 mph 5.6 mph 69 % 0.0 in
23:14 22.6 °F 16.6 °F 1011.7 in ESE 3.7 mph 3.7 mph 69 % 0.0 in
23:15 20.6 °F 11.8 °F 1010.7 in NW 1.6 mph 3.2 mph 57 % 0.0 in
23:19 22.5 °F 16.5 °F 1011.7 in ENE 5.6 mph 5.6 mph 69 % 0.0 in
23:24 22.5 °F 16.5 °F 1011.7 in East 4.2 mph 4.2 mph 69 % 0.0 in
23:25 20.4 °F 11.3 °F 1011.7 in WNW 1.6 mph 4.8 mph 56 % 0.0 in
23:29 22.5 °F 16.8 °F 1011.7 in NE 3.7 mph 3.7 mph 70 % 0.0 in
23:34 22.4 °F 16.7 °F 1011.7 in East 2.6 mph 2.6 mph 70 % 0.0 in
23:35 20.1 °F 11.1 °F 1011.7 in WNW 1.6 mph 4.8 mph 56 % 0.0 in
23:39 22.4 °F 16.7 °F 1011.7 in ENE 4.7 mph 4.7 mph 70 % 0.0 in
23:44 22.4 °F 16.7 °F 1011.7 in ENE 3.7 mph 3.7 mph 70 % 0.0 in
23:45 19.9 °F 11.1 °F 1011.7 in North 3.2 mph 3.2 mph 57 % 0.0 in
23:49 22.3 °F 16.6 °F 1011.7 in ENE 3.7 mph 3.7 mph 70 % 0.0 in
23:54 22.3 °F 16.6 °F 1011.7 in NNE 5.6 mph 5.6 mph 70 % 0.0 in
23:55 19.7 °F 10.9 °F 1011.7 in NE 1.6 mph 6.4 mph 57 % 0.0 in
23:59 22.3 °F 16.6 °F 1011.7 in ENE 3.7 mph 3.7 mph 70 % 0.0 in
Meteo Sesrovires
Elogis d' Weather Underground - 1.5 mb

Guio original per  Jim McMurry - jmcmurry@mwt.net Adaptat per a la plantilla per  Wim van der Kuil - Leuven-Template.eu

Trobareu la nostra informacio del temps tambe a:

Weather Underground

AWEKAS